AIRPORT ID: KANP

DATE: 2024-07-20 ZULU TIME: 9.55 LOCAL TIME: 5.55


METAR KANP 200955Z AUTO 00000KT 10SM 22/22 A3011

ALTIMETER: A3011 Q1020

DENSITY ALT: 700 Ft

WIND DIRECT: 140

WIND SPEED: 0 Gust

WIND CONDITIONS:

VISIBILTY: 10SM 9999M

TEMPERATURE: 72 F 22 C

DEW POINT: 72 F 22 C

HUMID: 100%

LCL: Under 500 feet

RADIO CHECK: 0

ADVISARIES: 0

GREETINGS: 0

CONVERSATIONS: 0